Time;durP1;ratioP1;P1;durP2;ratioP2;P2;SDS_P1;SDS_P2;PMS_P1;PMS_P2;Temp;Humidity;BMP_temperature;BMP_pressure;BME280_temperature;BME280_humidity;BME280_pressure;Samples;Min_cycle;Max_cycle;Signal;HPM_P1;HPM_P2
2022/01/16 00:04:35;;;;;;;78.47;33.97;;;2.00;99.90;;;;;;5055797;28;20512;-76
2022/01/16 00:07:04;;;;;;;80.13;35.50;;;2.00;99.90;;;;;;5039232;28;20036;-75
2022/01/16 00:09:31;;;;;;;77.28;28.05;;;2.00;99.90;;;;;;5038674;28;20043;-77
2022/01/16 00:12:00;;;;;;;75.70;32.97;;;2.00;99.90;;;;;;5055803;28;20044;-76
2022/01/16 00:14:26;;;;;;;83.63;34.08;;;2.00;99.90;;;;;;5038946;28;20135;-76
2022/01/16 00:16:52;;;;;;;84.03;35.42;;;2.00;99.90;;;;;;5038528;28;20516;-76
2022/01/16 00:19:17;;;;;;;84.68;33.03;;;2.00;99.90;;;;;;5038701;28;20083;-76
2022/01/16 00:21:43;;;;;;;91.53;33.88;;;2.00;99.90;;;;;;5055216;28;20384;-77
2022/01/16 00:24:11;;;;;;;84.57;33.30;;;2.00;99.90;;;;;;5055491;28;20048;-76
2022/01/16 00:26:37;;;;;;;84.78;34.75;;;2.00;99.90;;;;;;5054951;28;20177;-76
2022/01/16 00:29:07;;;;;;;88.03;34.22;;;2.10;99.90;;;;;;5040664;28;20033;-76
2022/01/16 00:31:35;;;;;;;81.07;35.10;;;2.10;99.90;;;;;;5041251;28;20044;-76
2022/01/16 00:34:01;;;;;;;92.90;35.88;;;2.10;99.90;;;;;;5042468;28;20044;-76
2022/01/16 00:36:27;;;;;;;93.75;36.80;;;2.10;99.90;;;;;;5059162;28;20047;-76
2022/01/16 00:38:53;;;;;;;98.13;36.78;;;2.10;99.90;;;;;;5059390;28;20040;-76
2022/01/16 00:41:21;;;;;;;109.68;38.75;;;2.10;99.90;;;;;;5042420;28;20040;-76
2022/01/16 00:43:48;;;;;;;102.40;37.35;;;2.10;99.90;;;;;;5059357;28;20029;-76
2022/01/16 00:46:14;;;;;;;113.50;38.30;;;2.10;99.90;;;;;;5042471;28;20468;-76
2022/01/16 00:48:40;;;;;;;104.63;36.58;;;2.10;99.90;;;;;;5042608;28;20033;-76
2022/01/16 00:51:06;;;;;;;107.47;38.90;;;2.10;99.90;;;;;;5042548;28;20063;-76
2022/01/16 00:53:32;;;;;;;109.20;39.60;;;2.20;99.90;;;;;;5042169;28;20102;-76
2022/01/16 00:55:58;;;;;;;105.53;38.50;;;2.20;99.90;;;;;;5059021;28;20048;-76
2022/01/16 00:58:24;;;;;;;109.95;38.03;;;2.20;99.90;;;;;;5042034;28;20114;-77
2022/01/16 01:00:50;;;;;;;110.95;38.38;;;2.20;99.90;;;;;;5040617;28;20082;-76
2022/01/16 01:03:16;;;;;;;86.82;31.33;;;2.20;99.90;;;;;;5041915;28;20085;-77
2022/01/16 01:05:42;;;;;;;82.68;29.77;;;2.20;99.90;;;;;;5058827;28;20090;-77
2022/01/16 01:08:08;;;;;;;99.13;33.65;;;2.20;99.90;;;;;;5042075;28;20040;-76
2022/01/16 01:10:37;;;;;;;82.13;31.33;;;2.20;99.90;;;;;;5058974;28;20131;-78
2022/01/16 01:15:45;;;;;;;102.30;32.28;;;2.20;99.90;;;;;;5058386;28;20102;-77
2022/01/16 01:18:11;;;;;;;99.40;33.53;;;2.10;99.90;;;;;;5042041;28;20036;-76
2022/01/16 01:20:40;;;;;;;74.95;25.52;;;2.10;99.90;;;;;;5041617;28;20408;-78
2022/01/16 01:23:06;;;;;;;80.78;25.90;;;2.10;99.90;;;;;;5041668;28;20082;-76
2022/01/16 01:25:32;;;;;;;140.38;38.80;;;2.10;99.90;;;;;;5041574;28;20654;-77
2022/01/16 01:27:58;;;;;;;85.50;27.30;;;2.10;99.90;;;;;;5041536;28;20041;-78
2022/01/16 01:30:24;;;;;;;112.43;28.85;;;2.10;99.90;;;;;;5039819;28;20032;-77
2022/01/16 01:32:55;;;;;;;112.32;30.45;;;2.10;99.90;;;;;;5041295;28;20041;-77
2022/01/16 01:35:21;;;;;;;128.73;33.47;;;2.10;99.90;;;;;;5058248;28;20040;-77
2022/01/16 01:37:48;;;;;;;161.25;41.97;;;2.00;99.90;;;;;;5057873;28;20545;-77
2022/01/16 01:40:23;;;;;;;149.70;34.40;;;2.10;99.90;;;;;;5057479;28;20369;-76
2022/01/16 01:51:14;;;;;;;102.93;24.95;;;2.00;99.90;;;;;;5057999;28;20048;-78
2022/01/16 01:53:42;;;;;;;114.50;31.05;;;2.00;99.90;;;;;;5057832;28;20404;-78
2022/01/16 01:56:10;;;;;;;144.98;33.72;;;2.00;99.90;;;;;;5057675;28;20112;-78
2022/01/16 01:58:36;;;;;;;119.03;27.70;;;2.00;99.90;;;;;;5041277;28;20072;-79
2022/01/16 02:01:03;;;;;;;104.68;30.88;;;2.00;99.90;;;;;;5039710;28;20036;-78
2022/01/16 02:06:04;;;;;;;112.00;28.13;;;2.00;99.90;;;;;;5057483;28;20047;-78
2022/01/16 02:08:29;;;;;;;93.00;25.33;;;2.00;99.90;;;;;;5040794;28;20036;-78
2022/01/16 02:10:57;;;;;;;107.43;29.65;;;2.00;99.90;;;;;;5040733;28;20132;-77
2022/01/16 02:13:30;;;;;;;117.20;29.60;;;2.10;99.90;;;;;;5040956;28;20043;-78
2022/01/16 02:34:36;;;;;;;143.07;38.63;;;2.10;99.90;;;;;;5057301;28;20127;-77
2022/01/16 02:37:09;;;;;;;100.95;30.25;;;2.10;99.90;;;;;;5040398;28;20079;-79
2022/01/16 02:39:38;;;;;;;131.70;37.03;;;2.20;99.90;;;;;;5057138;28;20075;-77
2022/01/16 02:42:06;;;;;;;125.95;32.30;;;2.20;99.90;;;;;;5056705;28;20079;-78
2022/01/16 02:44:42;;;;;;;60.50;20.27;;;2.20;99.90;;;;;;5040374;28;20036;-78
2022/01/16 02:47:11;;;;;;;103.32;30.35;;;2.20;99.90;;;;;;5056732;28;20047;-78
2022/01/16 02:49:40;;;;;;;146.43;41.13;;;2.20;99.90;;;;;;5039985;28;20041;-77
2022/01/16 02:52:11;;;;;;;127.85;34.05;;;2.20;99.90;;;;;;5056269;28;20064;-77
2022/01/16 02:58:09;;;;;;;169.15;40.00;;;2.20;99.90;;;;;;5056565;28;20060;-77
2022/01/16 03:00:34;;;;;;;120.60;34.13;;;2.20;99.90;;;;;;5038239;28;20045;-77
2022/01/16 03:03:00;;;;;;;152.65;38.67;;;2.30;99.90;;;;;;5039672;28;20049;-77
2022/01/16 03:05:26;;;;;;;55.75;19.55;;;2.30;99.90;;;;;;5039778;28;20115;-78
2022/01/16 03:07:51;;;;;;;160.82;40.53;;;2.30;99.90;;;;;;5039698;28;20036;-78
2022/01/16 03:13:15;;;;;;;115.93;32.33;;;2.40;99.90;;;;;;5003165;28;20095;-79
2022/01/16 03:15:41;;;;;;;109.57;28.27;;;2.40;99.90;;;;;;5055952;28;20507;-78
2022/01/16 03:23:21;;;;;;;108.55;29.13;;;2.40;99.90;;;;;;5056217;28;20051;-78
2022/01/16 03:25:48;;;;;;;232.00;53.63;;;2.40;99.90;;;;;;5039501;28;20040;-77
2022/01/16 03:28:14;;;;;;;160.80;38.35;;;2.40;99.90;;;;;;5039436;28;20060;-78
2022/01/16 03:30:41;;;;;;;200.77;44.63;;;2.40;99.90;;;;;;5037991;28;20488;-79
2022/01/16 03:33:07;;;;;;;208.90;46.03;;;2.50;99.90;;;;;;5039462;28;20516;-78
2022/01/16 03:35:33;;;;;;;201.07;42.60;;;2.50;99.90;;;;;;5039101;28;20127;-78
2022/01/16 03:38:00;;;;;;;209.18;47.72;;;2.50;99.90;;;;;;5055578;28;20044;-76
2022/01/16 03:40:26;;;;;;;174.68;40.72;;;2.50;99.90;;;;;;5055607;28;20553;-78
2022/01/16 03:42:52;;;;;;;235.68;49.80;;;2.60;99.90;;;;;;5038973;28;20138;-78
2022/01/16 03:45:18;;;;;;;122.28;31.13;;;2.60;99.90;;;;;;5039175;28;20160;-76
2022/01/16 03:47:44;;;;;;;178.95;42.00;;;2.60;99.90;;;;;;5055803;28;20074;-77
2022/01/16 03:50:10;;;;;;;205.00;44.17;;;2.60;99.90;;;;;;5039173;28;20495;-78
2022/01/16 03:52:36;;;;;;;204.75;45.85;;;2.70;99.90;;;;;;5039186;28;20431;-78
2022/01/16 03:55:03;;;;;;;185.35;42.83;;;2.70;99.90;;;;;;5038758;28;20044;-78
2022/01/16 03:57:29;;;;;;;238.93;53.25;;;2.70;99.90;;;;;;5038903;28;20135;-77
2022/01/16 03:59:55;;;;;;;108.28;27.73;;;2.70;99.90;;;;;;5055697;28;20154;-79
2022/01/16 04:02:21;;;;;;;219.70;46.28;;;2.80;99.90;;;;;;5037179;28;20036;-78
2022/01/16 04:04:47;;;;;;;201.07;45.30;;;2.80;99.90;;;;;;5055634;28;20515;-78
2022/01/16 04:07:18;;;;;;;195.50;47.42;;;2.80;99.90;;;;;;5055669;28;20040;-78
2022/01/16 04:09:44;;;;;;;226.18;48.60;;;2.80;99.90;;;;;;5038784;28;20040;-78
2022/01/16 04:12:10;;;;;;;241.35;54.83;;;2.80;99.90;;;;;;5038744;28;20105;-77
2022/01/16 04:17:13;;;;;;;244.48;56.30;;;2.90;99.90;;;;;;5054292;28;20048;-77
2022/01/16 04:19:38;;;;;;;261.88;54.33;;;2.90;99.90;;;;;;5037543;28;20109;-78
2022/01/16 04:22:04;;;;;;;196.30;44.65;;;3.00;99.90;;;;;;5037210;28;20508;-78
2022/01/16 04:24:30;;;;;;;243.65;52.47;;;3.00;99.90;;;;;;5037145;28;20037;-77
2022/01/16 04:26:56;;;;;;;264.23;54.00;;;3.00;99.90;;;;;;5037373;28;20071;-77
2022/01/16 04:29:22;;;;;;;231.15;56.58;;;3.00;99.90;;;;;;5037194;28;20036;-77
2022/01/16 04:31:47;;;;;;;220.30;51.97;;;3.10;99.90;;;;;;5034894;28;20506;-78
2022/01/16 04:34:13;;;;;;;263.55;52.25;;;3.10;99.90;;;;;;5037370;28;20044;-78
2022/01/16 04:36:39;;;;;;;249.75;56.10;;;3.10;99.90;;;;;;5037325;28;20041;-76
2022/01/16 04:39:13;;;;;;;218.95;52.10;;;3.10;99.90;;;;;;5037368;28;20396;-77
2022/01/16 04:44:24;;;;;;;249.38;58.15;;;3.20;99.90;;;;;;5053874;28;20037;-77
2022/01/16 04:46:50;;;;;;;238.07;50.10;;;3.20;99.90;;;;;;5036989;28;20040;-78
2022/01/16 04:49:16;;;;;;;214.88;49.75;;;3.20;99.90;;;;;;5053748;28;20032;-78
2022/01/16 04:51:42;;;;;;;146.77;35.67;;;3.20;99.90;;;;;;5053459;28;20040;-77
2022/01/16 04:54:08;;;;;;;172.07;43.38;;;3.20;99.90;;;;;;5053544;28;20071;-78
2022/01/16 04:56:34;;;;;;;170.13;42.22;;;3.20;99.90;;;;;;5053656;28;20044;-78
2022/01/16 04:59:00;;;;;;;176.50;45.67;;;3.30;99.90;;;;;;5036918;28;20484;-78
2022/01/16 05:01:26;;;;;;;189.55;48.70;;;3.30;99.90;;;;;;5034349;28;20132;-77
2022/01/16 05:03:52;;;;;;;227.27;51.08;;;3.30;99.90;;;;;;5053743;28;20439;-77
2022/01/16 05:06:18;;;;;;;238.57;55.78;;;3.30;99.90;;;;;;5053522;28;20151;-77
2022/01/16 05:08:44;;;;;;;239.23;55.75;;;3.30;99.90;;;;;;5036814;28;20500;-78
2022/01/16 05:11:11;;;;;;;238.80;53.13;;;3.30;99.90;;;;;;5053424;28;20040;-78
2022/01/16 05:18:50;;;;;;;236.10;58.70;;;3.30;99.90;;;;;;5056940;28;20132;-78
2022/01/16 05:21:16;;;;;;;148.60;38.60;;;3.40;99.90;;;;;;5039999;28;20136;-79
2022/01/16 05:23:42;;;;;;;237.82;55.65;;;3.40;99.90;;;;;;5040496;28;20041;-77
2022/01/16 05:26:09;;;;;;;150.25;38.28;;;3.40;99.90;;;;;;5040070;28;20051;-80
2022/01/16 05:28:35;;;;;;;226.35;55.40;;;3.40;99.90;;;;;;5056704;28;20496;-78
2022/01/16 05:31:03;;;;;;;206.13;55.67;;;3.40;99.90;;;;;;5037918;28;20036;-77
2022/01/16 05:33:28;;;;;;;212.65;49.03;;;3.40;99.90;;;;;;5056830;28;20404;-78
2022/01/16 05:35:54;;;;;;;219.45;56.47;;;3.50;99.90;;;;;;5040123;28;20074;-78
2022/01/16 05:38:20;;;;;;;209.23;53.67;;;3.50;99.90;;;;;;5056569;28;20500;-78
2022/01/16 05:40:46;;;;;;;204.05;55.53;;;3.50;99.90;;;;;;5056381;28;20049;-78
2022/01/16 05:43:12;;;;;;;201.70;53.45;;;3.50;99.90;;;;;;5056541;28;20043;-78
2022/01/16 05:45:38;;;;;;;240.38;56.33;;;3.50;99.90;;;;;;5056297;28;20210;-78
2022/01/16 05:48:04;;;;;;;223.70;51.63;;;3.50;99.90;;;;;;5039830;28;20131;-78
2022/01/16 05:50:33;;;;;;;261.85;61.53;;;3.60;99.90;;;;;;5039679;28;20182;-77
2022/01/16 05:53:01;;;;;;;302.55;66.28;;;3.60;99.90;;;;;;5039695;28;20044;-78
2022/01/16 05:55:31;;;;;;;208.88;52.70;;;3.60;99.90;;;;;;5039755;28;20040;-78
2022/01/16 05:57:57;;;;;;;251.88;61.25;;;3.60;99.90;;;;;;5039689;28;20040;-77
2022/01/16 06:00:23;;;;;;;250.88;60.92;;;3.60;99.90;;;;;;5037306;28;20036;-78
2022/01/16 06:02:49;;;;;;;269.00;62.88;;;3.60;99.90;;;;;;5039555;28;20094;-78
2022/01/16 06:05:16;;;;;;;239.55;57.88;;;3.60;99.90;;;;;;5039482;28;20040;-78
2022/01/16 06:07:51;;;;;;;220.85;58.83;;;3.60;99.90;;;;;;5039457;28;20506;-78
2022/01/16 06:10:17;;;;;;;220.63;58.75;;;3.70;99.90;;;;;;5039490;28;20033;-78
2022/01/16 06:12:43;;;;;;;208.73;49.97;;;3.70;99.90;;;;;;5039422;28;20661;-79
2022/01/16 06:15:09;;;;;;;215.32;57.50;;;3.70;99.90;;;;;;5039333;28;20040;-78
2022/01/16 06:17:35;;;;;;;187.80;54.67;;;3.70;99.90;;;;;;5055924;28;20040;-78
2022/01/16 06:20:01;;;;;;;213.25;58.45;;;3.80;99.90;;;;;;5055621;28;20071;-78
2022/01/16 06:22:26;;;;;;;207.38;53.85;;;3.80;99.90;;;;;;5038985;28;20040;-78
2022/01/16 06:24:52;;;;;;;170.93;48.92;;;3.80;99.90;;;;;;5039050;28;20085;-78
2022/01/16 06:27:18;;;;;;;214.82;57.85;;;3.90;99.90;;;;;;5055495;28;20044;-78
2022/01/16 06:29:44;;;;;;;226.75;59.45;;;3.90;99.90;;;;;;5039248;28;20044;-78
2022/01/16 06:32:09;;;;;;;205.10;55.60;;;3.90;99.90;;;;;;5036922;28;20101;-78
2022/01/16 06:34:35;;;;;;;216.40;58.25;;;3.90;99.90;;;;;;5039057;28;20048;-78
2022/01/16 06:37:01;;;;;;;194.27;56.17;;;3.90;99.90;;;;;;5038928;28;20524;-79
2022/01/16 06:39:29;;;;;;;215.45;58.78;;;3.90;99.90;;;;;;5038788;28;20045;-78
2022/01/16 06:41:55;;;;;;;203.52;55.40;;;4.00;99.90;;;;;;5055501;28;20106;-78
2022/01/16 06:44:21;;;;;;;157.48;45.00;;;4.00;99.90;;;;;;5055686;28;20040;-78
2022/01/16 06:46:47;;;;;;;160.30;45.58;;;4.00;99.90;;;;;;5038624;28;20040;-79
2022/01/16 06:49:13;;;;;;;199.05;57.13;;;4.10;99.90;;;;;;5038540;28;20051;-77
2022/01/16 06:51:39;;;;;;;188.50;55.97;;;4.10;99.90;;;;;;5055155;28;20048;-77
2022/01/16 06:54:05;;;;;;;181.30;55.00;;;4.10;99.90;;;;;;5038612;28;20040;-77
2022/01/16 06:56:31;;;;;;;190.65;56.10;;;4.10;99.90;;;;;;5055008;28;20337;-78
2022/01/16 06:58:58;;;;;;;182.73;55.22;;;4.20;99.90;;;;;;5055073;28;20508;-76
2022/01/16 07:01:25;;;;;;;202.65;57.05;;;4.20;99.90;;;;;;5035968;28;20036;-77
2022/01/16 07:03:51;;;;;;;174.90;55.25;;;4.20;99.90;;;;;;5054950;28;20572;-77
2022/01/16 07:06:17;;;;;;;174.38;53.15;;;4.20;99.90;;;;;;5055147;28;20131;-77
2022/01/16 07:08:43;;;;;;;183.00;53.92;;;4.20;99.90;;;;;;5038196;28;20074;-77
2022/01/16 07:11:09;;;;;;;186.13;55.45;;;4.20;99.90;;;;;;5054679;28;20040;-78
2022/01/16 07:13:35;;;;;;;182.05;53.92;;;4.20;99.90;;;;;;5038171;28;20127;-78
2022/01/16 07:16:01;;;;;;;182.43;53.58;;;4.20;99.90;;;;;;5038150;28;20127;-77
2022/01/16 07:18:30;;;;;;;187.55;54.42;;;4.20;99.90;;;;;;5054538;28;20130;-77
2022/01/16 07:20:56;;;;;;;179.55;54.88;;;4.20;99.90;;;;;;5054480;28;20566;-77
2022/01/16 07:23:23;;;;;;;172.70;55.53;;;4.20;99.90;;;;;;5054806;28;20036;-77
2022/01/16 07:25:50;;;;;;;173.20;54.55;;;4.30;99.90;;;;;;5038107;28;20075;-77
2022/01/16 07:28:16;;;;;;;152.48;51.40;;;4.30;99.90;;;;;;5038016;28;20124;-76
2022/01/16 07:30:42;;;;;;;167.80;51.38;;;4.30;99.90;;;;;;5035418;28;20543;-77
2022/01/16 07:33:09;;;;;;;162.70;52.83;;;4.40;99.90;;;;;;5037807;28;20039;-77
2022/01/16 07:35:36;;;;;;;161.65;53.85;;;4.40;99.90;;;;;;5037713;28;20036;-77
2022/01/16 07:38:03;;;;;;;159.00;52.35;;;4.40;99.90;;;;;;5053797;28;20075;-77
2022/01/16 07:40:29;;;;;;;134.90;50.38;;;4.40;99.90;;;;;;5037923;28;20401;-77
2022/01/16 07:42:55;;;;;;;136.88;50.20;;;4.50;99.90;;;;;;5037810;28;20040;-77
2022/01/16 07:45:21;;;;;;;117.55;46.42;;;4.50;99.90;;;;;;5037606;28;20062;-77
2022/01/16 07:47:47;;;;;;;117.30;46.92;;;4.60;99.90;;;;;;5037795;28;20127;-76
2022/01/16 07:50:15;;;;;;;108.50;45.50;;;4.60;99.90;;;;;;5035841;28;20470;-77
2022/01/16 07:52:41;;;;;;;99.00;42.15;;;4.70;99.90;;;;;;5053817;28;20454;-76
2022/01/16 07:55:07;;;;;;;91.18;38.33;;;4.80;99.90;;;;;;5037662;28;20044;-77
2022/01/16 07:57:33;;;;;;;77.00;37.75;;;4.90;99.90;;;;;;5053806;28;20499;-77
2022/01/16 07:59:59;;;;;;;72.63;36.85;;;5.00;99.90;;;;;;5037242;28;20032;-77
2022/01/16 08:02:25;;;;;;;75.47;35.35;;;5.10;99.90;;;;;;5035289;28;20040;-77
2022/01/16 08:04:51;;;;;;;64.90;34.30;;;5.20;99.90;;;;;;5038860;28;20036;-77
2022/01/16 08:07:16;;;;;;;57.60;32.53;;;5.20;99.90;;;;;;5038139;28;20203;-77
2022/01/16 08:09:43;;;;;;;62.15;31.25;;;5.30;99.90;;;;;;5037457;28;20041;-77
2022/01/16 08:12:11;;;;;;;54.85;29.95;;;5.40;99.90;;;;;;5056542;28;20051;-77
2022/01/16 08:14:37;;;;;;;55.92;28.77;;;5.50;99.90;;;;;;5058408;28;20415;-77
2022/01/16 08:17:03;;;;;;;54.75;29.95;;;5.50;99.90;;;;;;5058005;28;20044;-77
2022/01/16 08:19:29;;;;;;;51.13;28.52;;;5.50;99.90;;;;;;5057761;28;20048;-74
2022/01/16 08:21:55;;;;;;;56.78;30.27;;;5.60;99.90;;;;;;5057679;28;20197;-73
2022/01/16 08:24:21;;;;;;;54.13;29.20;;;5.60;99.90;;;;;;5074818;28;20043;-74
2022/01/16 08:26:47;;;;;;;48.03;27.50;;;5.60;99.90;;;;;;5074804;28;20036;-74
2022/01/16 08:29:15;;;;;;;52.53;29.50;;;5.60;99.90;;;;;;5074631;28;20036;-74
2022/01/16 08:31:41;;;;;;;46.78;27.20;;;5.60;99.90;;;;;;5072520;28;20122;-74
2022/01/16 08:34:06;;;;;;;50.22;28.33;;;5.70;99.90;;;;;;5074370;28;20127;-74
2022/01/16 08:36:32;;;;;;;50.72;27.13;;;5.70;99.90;;;;;;5074740;28;20039;-73
2022/01/16 08:38:58;;;;;;;52.95;27.73;;;5.70;99.90;;;;;;5074182;28;20048;-73
2022/01/16 08:41:24;;;;;;;49.58;27.77;;;5.70;99.90;;;;;;5073413;28;20047;-73
2022/01/16 08:43:51;;;;;;;47.28;25.60;;;5.80;99.90;;;;;;5073399;28;20040;-73
2022/01/16 08:46:18;;;;;;;48.90;27.88;;;5.80;99.90;;;;;;5056860;28;20036;-74
2022/01/16 08:48:44;;;;;;;46.85;26.83;;;5.80;99.90;;;;;;5056794;28;20100;-74
2022/01/16 08:51:11;;;;;;;44.85;27.27;;;5.80;99.90;;;;;;5060800;28;20047;-74
2022/01/16 08:53:37;;;;;;;44.92;27.63;;;5.90;99.90;;;;;;5060655;28;20040;-74
2022/01/16 08:56:03;;;;;;;43.65;25.85;;;5.90;99.90;;;;;;5060652;28;20047;-74
2022/01/16 08:58:29;;;;;;;50.55;30.02;;;5.90;99.90;;;;;;5060748;28;20046;-74
2022/01/16 09:00:54;;;;;;;49.83;30.50;;;5.90;99.90;;;;;;5074767;28;20039;-74
2022/01/16 09:03:22;;;;;;;43.22;25.45;;;6.00;99.90;;;;;;5060175;28;20032;-73
2022/01/16 09:05:49;;;;;;;53.00;35.30;;;6.00;99.90;;;;;;5061646;28;20487;-72
2022/01/16 09:08:15;;;;;;;54.13;35.33;;;6.00;99.90;;;;;;5061849;28;20036;-73
2022/01/16 09:10:41;;;;;;;61.13;43.33;;;6.10;99.90;;;;;;5078422;28;20436;-73
2022/01/16 09:13:12;;;;;;;61.28;45.17;;;6.10;99.90;;;;;;5047299;28;20126;-74
2022/01/16 09:15:43;;;;;;;54.58;40.42;;;6.10;99.90;;;;;;5041176;28;20495;-73
2022/01/16 09:18:09;;;;;;;51.45;32.90;;;6.10;99.90;;;;;;5041348;28;20037;-73
2022/01/16 09:20:35;;;;;;;40.38;26.00;;;6.10;99.90;;;;;;5041250;28;20055;-73
2022/01/16 09:23:01;;;;;;;40.08;26.38;;;6.20;99.90;;;;;;5058272;28;20049;-74
2022/01/16 09:25:27;;;;;;;43.35;25.85;;;6.20;99.90;;;;;;5041009;28;20047;-73
2022/01/16 09:27:53;;;;;;;39.22;24.55;;;6.20;99.90;;;;;;5041397;28;20457;-74
2022/01/16 09:30:21;;;;;;;40.97;25.27;;;6.20;99.90;;;;;;5039615;28;20119;-74
2022/01/16 09:32:47;;;;;;;39.17;21.20;;;6.20;99.90;;;;;;5057292;28;20036;-73
2022/01/16 09:35:13;;;;;;;40.35;21.50;;;6.20;99.90;;;;;;5057774;28;20113;-74
2022/01/16 09:37:40;;;;;;;37.83;21.60;;;6.20;99.90;;;;;;5041242;28;20076;-74
2022/01/16 09:40:07;;;;;;;42.78;21.75;;;6.20;99.90;;;;;;5057762;28;20404;-74
2022/01/16 09:42:34;;;;;;;37.33;21.08;;;6.20;99.90;;;;;;5036278;28;20089;-74
2022/01/16 09:45:00;;;;;;;39.42;24.65;;;6.20;99.90;;;;;;5057582;28;20505;-74
2022/01/16 09:47:25;;;;;;;42.25;22.38;;;6.20;99.90;;;;;;5057401;28;20044;-74
2022/01/16 09:49:51;;;;;;;36.92;21.98;;;6.20;99.90;;;;;;5040938;28;20149;-74
2022/01/16 09:52:19;;;;;;;34.85;20.02;;;6.20;99.90;;;;;;5040824;28;20101;-74
2022/01/16 09:54:45;;;;;;;36.15;20.02;;;6.30;99.90;;;;;;5040841;28;20040;-75
2022/01/16 09:57:14;;;;;;;31.60;19.33;;;6.30;99.90;;;;;;5057555;28;20033;-74
2022/01/16 09:59:40;;;;;;;34.50;18.77;;;6.30;99.90;;;;;;5040160;28;20040;-74
2022/01/16 10:02:06;;;;;;;30.23;17.15;;;6.30;99.90;;;;;;5038844;28;20121;-74
2022/01/16 10:04:39;;;;;;;31.27;17.15;;;6.30;99.90;;;;;;5040526;28;20192;-74
2022/01/16 10:07:16;;;;;;;29.50;15.85;;;6.30;99.90;;;;;;5057211;28;20064;-74
2022/01/16 10:09:45;;;;;;;31.80;14.85;;;6.30;99.90;;;;;;5040379;28;20079;-75
2022/01/16 10:12:19;;;;;;;22.75;11.85;;;6.40;99.90;;;;;;5040680;28;20040;-75
2022/01/16 10:14:49;;;;;;;20.15;10.95;;;6.40;99.90;;;;;;5040740;28;20374;-75
2022/01/16 10:17:20;;;;;;;19.17;9.70;;;6.50;99.90;;;;;;5040706;28;20040;-75
2022/01/16 10:20:00;;;;;;;20.02;10.45;;;6.50;99.90;;;;;;5056771;28;20048;-76
2022/01/16 10:22:42;;;;;;;16.92;7.40;;;6.50;99.90;;;;;;5057097;28;20076;-75
2022/01/16 10:25:09;;;;;;;19.73;8.85;;;6.60;99.90;;;;;;5057144;28;20048;-75
2022/01/16 10:27:37;;;;;;;17.48;8.88;;;6.60;99.90;;;;;;5057009;28;20040;-75
2022/01/16 10:30:07;;;;;;;16.65;8.90;;;6.70;99.90;;;;;;5040210;28;20047;-75
2022/01/16 10:32:37;;;;;;;14.57;6.85;;;6.70;99.90;;;;;;5038720;28;20044;-73
2022/01/16 10:35:21;;;;;;;21.08;8.07;;;6.60;99.90;;;;;;5056815;28;20110;-75
2022/01/16 10:37:54;;;;;;;15.05;8.10;;;6.70;99.90;;;;;;5057302;28;20511;-74
2022/01/16 10:40:40;;;;;;;17.90;8.65;;;6.70;99.90;;;;;;5040123;28;20040;-75
2022/01/16 10:43:13;;;;;;;17.17;8.80;;;6.70;99.90;;;;;;5040111;28;20036;-74
2022/01/16 10:45:40;;;;;;;19.20;8.23;;;6.80;99.90;;;;;;5056877;28;20186;-74
2022/01/16 10:48:06;;;;;;;19.00;8.07;;;6.70;99.90;;;;;;5056671;28;20369;-73
2022/01/16 10:50:35;;;;;;;12.52;6.80;;;6.80;99.90;;;;;;5040314;28;20567;-76
2022/01/16 10:53:15;;;;;;;18.55;8.75;;;6.80;99.90;;;;;;5056861;28;20033;-75
2022/01/16 10:55:49;;;;;;;14.25;7.45;;;6.80;99.90;;;;;;5039893;28;20090;-75
2022/01/16 10:58:22;;;;;;;18.17;8.18;;;6.80;99.90;;;;;;5039942;28;20054;-75
2022/01/16 11:01:03;;;;;;;17.23;8.70;;;6.80;99.90;;;;;;5037583;28;20032;-75
2022/01/16 11:03:37;;;;;;;17.58;8.25;;;6.90;99.90;;;;;;5039772;28;20050;-74
2022/01/16 11:06:03;;;;;;;16.00;6.88;;;6.90;99.90;;;;;;5039572;28;20036;-75
2022/01/16 11:08:29;;;;;;;19.40;7.40;;;6.80;99.90;;;;;;5056232;28;20051;-75
2022/01/16 11:10:56;;;;;;;21.65;7.88;;;6.90;99.90;;;;;;5055858;28;20405;-76
2022/01/16 11:13:30;;;;;;;16.00;7.40;;;6.90;99.90;;;;;;5055160;28;20045;-74
2022/01/16 11:15:59;;;;;;;18.35;6.93;;;6.90;99.90;;;;;;5055782;28;20036;-73
2022/01/16 11:18:26;;;;;;;23.13;7.95;;;6.90;99.90;;;;;;5039495;28;20048;-72
2022/01/16 11:26:01;;;;;;;17.92;6.75;;;6.90;99.90;;;;;;5055793;28;20054;-74
2022/01/16 11:28:27;;;;;;;18.08;7.03;;;6.90;99.90;;;;;;5039269;28;20094;-74
2022/01/16 11:31:00;;;;;;;13.35;6.90;;;6.90;99.90;;;;;;5037408;28;20044;-74
2022/01/16 11:33:28;;;;;;;16.77;6.68;;;6.90;99.90;;;;;;5039623;28;20051;-74
2022/01/16 11:36:00;;;;;;;16.02;6.95;;;6.90;99.90;;;;;;5039157;28;20082;-74
2022/01/16 11:38:32;;;;;;;12.00;7.15;;;6.90;99.90;;;;;;5039334;28;20450;-74
2022/01/16 11:41:23;;;;;;;14.32;7.15;;;6.90;99.90;;;;;;5055709;28;20040;-74
2022/01/16 11:43:51;;;;;;;23.13;7.05;;;6.90;99.90;;;;;;5039184;28;20036;-74
2022/01/16 11:46:20;;;;;;;15.23;6.80;;;7.00;99.90;;;;;;5038924;28;20043;-74
2022/01/16 11:48:51;;;;;;;13.40;6.83;;;7.00;99.90;;;;;;5039216;28;20369;-74
2022/01/16 11:51:32;;;;;;;;;;;7.10;99.90;;;;;;5055804;28;20108;-74
2022/01/16 11:54:21;;;;;;;17.65;6.95;;;7.10;99.90;;;;;;5055941;28;19939;-74
2022/01/16 11:56:46;;;;;;;20.75;7.50;;;7.10;99.90;;;;;;5055473;28;20127;-74
2022/01/16 11:59:15;;;;;;;16.23;7.35;;;7.20;99.90;;;;;;5054523;28;20131;-74
2022/01/16 12:02:04;;;;;;;17.67;7.60;;;7.20;99.90;;;;;;5053345;28;20047;-76
2022/01/16 12:04:30;;;;;;;16.90;6.90;;;7.20;99.90;;;;;;5038976;28;20097;-76
2022/01/16 12:07:00;;;;;;;17.15;7.68;;;7.20;99.90;;;;;;5055249;28;20461;-76
2022/01/16 12:09:40;;;;;;;18.50;8.88;;;7.30;99.90;;;;;;5055333;28;20097;-74
2022/01/16 12:12:12;;;;;;;14.90;6.00;;;7.30;99.90;;;;;;5038681;28;20476;-75
2022/01/16 12:15:16;;;;;;;17.45;7.90;;;7.30;99.90;;;;;;5055008;28;20054;-75
2022/01/16 12:17:45;;;;;;;18.95;8.02;;;7.30;99.90;;;;;;5055177;28;20040;-74
2022/01/16 12:20:11;;;;;;;17.52;7.00;;;7.30;99.90;;;;;;5064980;28;20060;-73
2022/01/16 12:22:46;;;;;;;20.77;8.65;;;7.30;99.90;;;;;;5074916;28;20059;-73
2022/01/16 12:25:26;;;;;;;15.10;8.30;;;7.30;99.90;;;;;;5065242;28;20047;-75
2022/01/16 12:27:55;;;;;;;;;;;7.30;99.90;;;;;;5076365;28;20075;-75
2022/01/16 12:30:26;;;;;;;20.98;8.35;;;7.30;99.90;;;;;;5044383;28;19916;-75
2022/01/16 12:32:57;;;;;;;;;;;7.30;99.90;;;;;;5045439;28;20044;-75
2022/01/16 12:35:41;;;;;;;14.88;7.32;;;7.40;99.90;;;;;;5062269;28;19939;-74
2022/01/16 12:38:11;;;;;;;13.20;7.22;;;7.40;99.90;;;;;;5061873;28;20044;-75
2022/01/16 12:40:38;;;;;;;22.33;8.65;;;7.40;99.90;;;;;;5061527;28;20469;-75
2022/01/16 12:43:09;;;;;;;13.60;7.68;;;7.40;99.90;;;;;;5061838;28;20048;-77
2022/01/16 12:45:41;;;;;;;16.58;7.80;;;7.40;99.90;;;;;;5061803;28;20477;-75
2022/01/16 12:48:08;;;;;;;14.82;7.45;;;7.40;99.90;;;;;;5060677;28;20489;-75
2022/01/16 12:50:37;;;;;;;15.20;7.68;;;7.40;99.90;;;;;;5061609;28;20114;-75
2022/01/16 12:53:07;;;;;;;15.63;7.55;;;7.40;99.90;;;;;;5061589;28;20496;-75
2022/01/16 12:55:34;;;;;;;16.08;7.97;;;7.40;99.90;;;;;;5044800;28;20041;-75
2022/01/16 12:58:20;;;;;;;15.50;7.57;;;7.40;99.90;;;;;;5044830;28;20503;-75
2022/01/16 13:01:04;;;;;;;16.75;7.30;;;7.30;99.90;;;;;;5043147;28;20147;-75
2022/01/16 13:03:32;;;;;;;18.33;6.93;;;7.30;99.90;;;;;;5061637;28;20044;-75
2022/01/16 13:06:13;;;;;;;15.55;6.63;;;7.30;99.90;;;;;;5044726;28;20044;-76
2022/01/16 13:09:08;;;;;;;17.73;7.22;;;7.30;99.90;;;;;;5045122;28;20041;-75
2022/01/16 13:11:52;;;;;;;13.88;6.43;;;7.30;99.90;;;;;;5044966;28;20040;-76
2022/01/16 13:14:22;;;;;;;17.67;7.53;;;7.30;99.90;;;;;;5061754;28;20435;-76
2022/01/16 13:16:51;;;;;;;13.35;6.53;;;7.30;99.90;;;;;;5045552;28;20139;-77
2022/01/16 13:19:22;;;;;;;13.90;7.22;;;7.30;99.90;;;;;;5061571;28;20043;-77
2022/01/16 13:24:36;;;;;;;;;;;7.30;99.90;;;;;;5061945;28;20044;-77
2022/01/16 13:27:07;;;;;;;17.77;6.88;;;7.30;99.90;;;;;;5061406;28;19916;-76
2022/01/16 13:29:39;;;;;;;12.02;5.85;;;7.20;99.90;;;;;;5045070;28;20032;-77
2022/01/16 13:32:08;;;;;;;14.05;7.38;;;7.30;99.90;;;;;;5042894;28;20040;-77
2022/01/16 13:34:42;;;;;;;13.60;6.97;;;7.20;99.90;;;;;;5060155;28;20048;-77
2022/01/16 13:37:14;;;;;;;14.15;6.50;;;7.20;99.90;;;;;;5057974;28;20048;-76
2022/01/16 13:39:46;;;;;;;19.63;6.13;;;7.20;99.90;;;;;;5041527;28;20042;-76
2022/01/16 13:42:19;;;;;;;19.55;7.63;;;7.30;99.90;;;;;;5058001;28;20131;-76
2022/01/16 13:44:46;;;;;;;19.08;7.80;;;7.30;99.90;;;;;;5058267;28;20355;-75
2022/01/16 13:47:20;;;;;;;14.55;6.85;;;7.30;99.90;;;;;;5041793;28;20423;-76